sensor_id;sensor_type;location;lat;lon;timestamp;P1;durP1;ratioP1;P2;durP2;ratioP2
52450;SDS011;38366;53.176;6.540;2022-10-30T00:00:54;18.92;;;9.23;;
52450;SDS011;38366;53.176;6.540;2022-10-30T00:03:20;19.33;;;9.43;;
52450;SDS011;38366;53.176;6.540;2022-10-30T00:05:46;27.52;;;10.07;;
52450;SDS011;38366;53.176;6.540;2022-10-30T00:08:14;19.45;;;9.43;;
52450;SDS011;38366;53.176;6.540;2022-10-30T00:10:42;17.83;;;9.25;;
52450;SDS011;38366;53.176;6.540;2022-10-30T00:13:09;18.73;;;8.85;;
52450;SDS011;38366;53.176;6.540;2022-10-30T00:15:36;23.02;;;9.20;;
52450;SDS011;38366;53.176;6.540;2022-10-30T00:20:27;16.63;;;8.27;;
52450;SDS011;38366;53.176;6.540;2022-10-30T00:22:53;17.42;;;9.57;;
52450;SDS011;38366;53.176;6.540;2022-10-30T00:25:21;15.90;;;8.23;;
52450;SDS011;38366;53.176;6.540;2022-10-30T00:27:47;18.50;;;9.18;;
52450;SDS011;38366;53.176;6.540;2022-10-30T00:30:13;18.60;;;8.77;;
52450;SDS011;38366;53.176;6.540;2022-10-30T00:32:40;15.90;;;8.52;;
52450;SDS011;38366;53.176;6.540;2022-10-30T00:35:07;16.80;;;8.50;;
52450;SDS011;38366;53.176;6.540;2022-10-30T00:37:34;21.95;;;9.48;;
52450;SDS011;38366;53.176;6.540;2022-10-30T00:39:59;21.23;;;9.10;;
52450;SDS011;38366;53.176;6.540;2022-10-30T00:42:28;19.75;;;8.63;;
52450;SDS011;38366;53.176;6.540;2022-10-30T00:44:54;17.55;;;8.82;;
52450;SDS011;38366;53.176;6.540;2022-10-30T00:47:33;21.10;;;9.05;;
52450;SDS011;38366;53.176;6.540;2022-10-30T00:50:04;17.25;;;8.82;;
52450;SDS011;38366;53.176;6.540;2022-10-30T00:52:42;18.52;;;9.05;;
52450;SDS011;38366;53.176;6.540;2022-10-30T00:55:16;17.98;;;8.68;;
52450;SDS011;38366;53.176;6.540;2022-10-30T00:57:49;21.58;;;8.80;;
52450;SDS011;38366;53.176;6.540;2022-10-30T01:00:17;18.88;;;9.30;;
52450;SDS011;38366;53.176;6.540;2022-10-30T01:02:48;20.60;;;9.23;;
52450;SDS011;38366;53.176;6.540;2022-10-30T01:05:16;19.02;;;9.32;;
52450;SDS011;38366;53.176;6.540;2022-10-30T01:07:43;17.80;;;9.05;;
52450;SDS011;38366;53.176;6.540;2022-10-30T01:10:09;19.30;;;8.85;;
52450;SDS011;38366;53.176;6.540;2022-10-30T01:12:37;21.63;;;8.93;;
52450;SDS011;38366;53.176;6.540;2022-10-30T01:15:04;18.63;;;9.15;;
52450;SDS011;38366;53.176;6.540;2022-10-30T01:38:47;19.80;;;8.98;;
52450;SDS011;38366;53.176;6.540;2022-10-30T01:41:13;17.13;;;8.25;;
52450;SDS011;38366;53.176;6.540;2022-10-30T01:43:39;17.45;;;8.38;;
52450;SDS011;38366;53.176;6.540;2022-10-30T01:46:27;18.08;;;9.10;;
52450;SDS011;38366;53.176;6.540;2022-10-30T01:52:21;18.17;;;8.00;;
52450;SDS011;38366;53.176;6.540;2022-10-30T01:54:58;21.02;;;8.93;;
52450;SDS011;38366;53.176;6.540;2022-10-30T02:00:26;22.30;;;9.10;;
52450;SDS011;38366;53.176;6.540;2022-10-30T02:02:53;18.98;;;9.40;;
52450;SDS011;38366;53.176;6.540;2022-10-30T02:05:42;17.30;;;9.75;;
52450;SDS011;38366;53.176;6.540;2022-10-30T02:08:07;20.80;;;7.93;;
52450;SDS011;38366;53.176;6.540;2022-10-30T02:10:33;18.58;;;8.88;;
52450;SDS011;38366;53.176;6.540;2022-10-30T02:13:00;15.75;;;8.35;;
52450;SDS011;38366;53.176;6.540;2022-10-30T02:15:27;19.27;;;8.65;;
52450;SDS011;38366;53.176;6.540;2022-10-30T02:17:53;22.00;;;9.00;;
52450;SDS011;38366;53.176;6.540;2022-10-30T02:20:20;18.30;;;9.27;;
52450;SDS011;38366;53.176;6.540;2022-10-30T02:22:46;15.73;;;8.13;;
52450;SDS011;38366;53.176;6.540;2022-10-30T02:25:12;20.20;;;9.82;;
52450;SDS011;38366;53.176;6.540;2022-10-30T02:27:38;18.65;;;9.02;;
52450;SDS011;38366;53.176;6.540;2022-10-30T02:30:04;20.30;;;8.68;;
52450;SDS011;38366;53.176;6.540;2022-10-30T02:34:56;19.85;;;9.27;;
52450;SDS011;38366;53.176;6.540;2022-10-30T02:37:21;20.30;;;8.70;;
52450;SDS011;38366;53.176;6.540;2022-10-30T02:39:48;18.98;;;9.05;;
52450;SDS011;38366;53.176;6.540;2022-10-30T02:42:14;18.55;;;8.63;;
52450;SDS011;38366;53.176;6.540;2022-10-30T02:44:40;14.98;;;9.02;;
52450;SDS011;38366;53.176;6.540;2022-10-30T02:47:06;18.15;;;9.18;;
52450;SDS011;38366;53.176;6.540;2022-10-30T02:49:31;19.67;;;9.38;;
52450;SDS011;38366;53.176;6.540;2022-10-30T02:51:57;19.23;;;9.18;;
52450;SDS011;38366;53.176;6.540;2022-10-30T02:54:23;19.48;;;8.80;;
52450;SDS011;38366;53.176;6.540;2022-10-30T02:56:49;18.02;;;9.35;;
52450;SDS011;38366;53.176;6.540;2022-10-30T02:59:15;19.02;;;8.65;;
52450;SDS011;38366;53.176;6.540;2022-10-30T03:01:41;18.67;;;8.90;;
52450;SDS011;38366;53.176;6.540;2022-10-30T03:04:06;21.88;;;9.20;;
52450;SDS011;38366;53.176;6.540;2022-10-30T03:06:32;17.92;;;9.30;;
52450;SDS011;38366;53.176;6.540;2022-10-30T03:08:58;18.15;;;9.68;;
52450;SDS011;38366;53.176;6.540;2022-10-30T03:11:23;22.02;;;9.13;;
52450;SDS011;38366;53.176;6.540;2022-10-30T03:13:49;18.92;;;8.50;;
52450;SDS011;38366;53.176;6.540;2022-10-30T03:16:19;19.42;;;9.60;;
52450;SDS011;38366;53.176;6.540;2022-10-30T03:18:47;23.00;;;10.02;;
52450;SDS011;38366;53.176;6.540;2022-10-30T03:21:14;22.30;;;10.10;;
52450;SDS011;38366;53.176;6.540;2022-10-30T03:23:41;19.35;;;9.45;;
52450;SDS011;38366;53.176;6.540;2022-10-30T03:26:07;20.30;;;9.50;;
52450;SDS011;38366;53.176;6.540;2022-10-30T03:28:33;21.35;;;9.68;;
52450;SDS011;38366;53.176;6.540;2022-10-30T03:31:00;18.67;;;8.90;;
52450;SDS011;38366;53.176;6.540;2022-10-30T03:33:27;17.30;;;8.77;;
52450;SDS011;38366;53.176;6.540;2022-10-30T03:35:54;23.45;;;9.23;;
52450;SDS011;38366;53.176;6.540;2022-10-30T03:38:20;19.08;;;9.50;;
52450;SDS011;38366;53.176;6.540;2022-10-30T03:40:46;19.17;;;9.30;;
52450;SDS011;38366;53.176;6.540;2022-10-30T03:43:11;20.60;;;9.10;;
52450;SDS011;38366;53.176;6.540;2022-10-30T03:45:37;22.02;;;9.60;;
52450;SDS011;38366;53.176;6.540;2022-10-30T03:48:03;18.97;;;9.27;;
52450;SDS011;38366;53.176;6.540;2022-10-30T03:50:30;20.17;;;9.15;;
52450;SDS011;38366;53.176;6.540;2022-10-30T03:55:22;17.50;;;9.25;;
52450;SDS011;38366;53.176;6.540;2022-10-30T04:00:15;16.70;;;9.07;;
52450;SDS011;38366;53.176;6.540;2022-10-30T04:02:49;16.30;;;8.80;;
52450;SDS011;38366;53.176;6.540;2022-10-30T04:05:16;19.80;;;9.68;;
52450;SDS011;38366;53.176;6.540;2022-10-30T04:07:43;24.95;;;10.02;;
52450;SDS011;38366;53.176;6.540;2022-10-30T04:10:12;17.85;;;9.48;;
52450;SDS011;38366;53.176;6.540;2022-10-30T04:15:05;23.48;;;9.88;;
52450;SDS011;38366;53.176;6.540;2022-10-30T04:17:32;19.75;;;8.88;;
52450;SDS011;38366;53.176;6.540;2022-10-30T04:19:58;18.55;;;9.45;;
52450;SDS011;38366;53.176;6.540;2022-10-30T04:22:24;22.70;;;9.23;;
52450;SDS011;38366;53.176;6.540;2022-10-30T04:24:50;18.90;;;9.35;;
52450;SDS011;38366;53.176;6.540;2022-10-30T04:27:17;20.38;;;9.10;;
52450;SDS011;38366;53.176;6.540;2022-10-30T04:29:44;18.27;;;9.45;;
52450;SDS011;38366;53.176;6.540;2022-10-30T04:34:36;17.98;;;9.10;;
52450;SDS011;38366;53.176;6.540;2022-10-30T04:37:03;18.88;;;9.88;;
52450;SDS011;38366;53.176;6.540;2022-10-30T04:39:32;22.45;;;9.13;;
52450;SDS011;38366;53.176;6.540;2022-10-30T04:41:58;18.90;;;9.38;;
52450;SDS011;38366;53.176;6.540;2022-10-30T04:44:24;19.48;;;10.10;;
52450;SDS011;38366;53.176;6.540;2022-10-30T04:46:49;20.20;;;10.07;;
52450;SDS011;38366;53.176;6.540;2022-10-30T04:49:16;23.15;;;10.23;;
52450;SDS011;38366;53.176;6.540;2022-10-30T04:51:42;19.83;;;9.73;;
52450;SDS011;38366;53.176;6.540;2022-10-30T04:54:07;20.27;;;9.20;;
52450;SDS011;38366;53.176;6.540;2022-10-30T04:56:33;24.33;;;9.70;;
52450;SDS011;38366;53.176;6.540;2022-10-30T04:58:59;20.67;;;9.60;;
52450;SDS011;38366;53.176;6.540;2022-10-30T05:01:24;16.60;;;9.20;;
52450;SDS011;38366;53.176;6.540;2022-10-30T05:03:50;24.00;;;9.40;;
52450;SDS011;38366;53.176;6.540;2022-10-30T05:06:25;22.65;;;9.70;;
52450;SDS011;38366;53.176;6.540;2022-10-30T05:08:54;25.45;;;10.02;;
52450;SDS011;38366;53.176;6.540;2022-10-30T05:11:20;21.30;;;9.60;;
52450;SDS011;38366;53.176;6.540;2022-10-30T05:13:46;20.48;;;9.65;;
52450;SDS011;38366;53.176;6.540;2022-10-30T05:16:11;21.88;;;9.43;;
52450;SDS011;38366;53.176;6.540;2022-10-30T05:18:37;18.55;;;9.80;;
52450;SDS011;38366;53.176;6.540;2022-10-30T05:21:03;23.67;;;9.70;;
52450;SDS011;38366;53.176;6.540;2022-10-30T05:23:29;17.58;;;9.93;;
52450;SDS011;38366;53.176;6.540;2022-10-30T05:25:54;18.58;;;9.63;;
52450;SDS011;38366;53.176;6.540;2022-10-30T05:28:20;18.83;;;9.47;;
52450;SDS011;38366;53.176;6.540;2022-10-30T05:30:46;24.77;;;10.38;;
52450;SDS011;38366;53.176;6.540;2022-10-30T05:33:12;24.03;;;11.03;;
52450;SDS011;38366;53.176;6.540;2022-10-30T05:35:41;19.75;;;9.98;;
52450;SDS011;38366;53.176;6.540;2022-10-30T05:38:07;22.83;;;9.57;;
52450;SDS011;38366;53.176;6.540;2022-10-30T05:40:33;25.67;;;10.40;;
52450;SDS011;38366;53.176;6.540;2022-10-30T05:42:59;21.50;;;9.27;;
52450;SDS011;38366;53.176;6.540;2022-10-30T05:45:25;22.33;;;10.77;;
52450;SDS011;38366;53.176;6.540;2022-10-30T05:48:09;24.48;;;10.18;;
52450;SDS011;38366;53.176;6.540;2022-10-30T05:50:34;21.38;;;10.82;;
52450;SDS011;38366;53.176;6.540;2022-10-30T05:53:01;19.73;;;10.40;;
52450;SDS011;38366;53.176;6.540;2022-10-30T05:55:29;24.88;;;10.15;;
52450;SDS011;38366;53.176;6.540;2022-10-30T05:57:59;25.60;;;10.23;;
52450;SDS011;38366;53.176;6.540;2022-10-30T06:00:27;23.23;;;10.95;;
52450;SDS011;38366;53.176;6.540;2022-10-30T06:02:58;25.80;;;10.32;;
52450;SDS011;38366;53.176;6.540;2022-10-30T06:05:28;22.63;;;10.82;;
52450;SDS011;38366;53.176;6.540;2022-10-30T06:07:55;20.88;;;10.40;;
52450;SDS011;38366;53.176;6.540;2022-10-30T06:10:22;23.77;;;9.70;;
52450;SDS011;38366;53.176;6.540;2022-10-30T06:12:52;20.17;;;9.75;;
52450;SDS011;38366;53.176;6.540;2022-10-30T06:15:25;22.83;;;9.77;;
52450;SDS011;38366;53.176;6.540;2022-10-30T06:17:52;21.00;;;10.02;;
52450;SDS011;38366;53.176;6.540;2022-10-30T06:20:19;22.00;;;10.15;;
52450;SDS011;38366;53.176;6.540;2022-10-30T06:22:53;18.67;;;9.65;;
52450;SDS011;38366;53.176;6.540;2022-10-30T06:25:19;21.10;;;10.63;;
52450;SDS011;38366;53.176;6.540;2022-10-30T06:27:45;21.20;;;10.60;;
52450;SDS011;38366;53.176;6.540;2022-10-30T06:30:11;25.23;;;10.45;;
52450;SDS011;38366;53.176;6.540;2022-10-30T06:32:37;23.30;;;10.70;;
52450;SDS011;38366;53.176;6.540;2022-10-30T06:35:02;21.33;;;9.48;;
52450;SDS011;38366;53.176;6.540;2022-10-30T06:37:28;21.08;;;10.40;;
52450;SDS011;38366;53.176;6.540;2022-10-30T06:39:54;22.88;;;11.02;;
52450;SDS011;38366;53.176;6.540;2022-10-30T06:42:20;25.63;;;10.57;;
52450;SDS011;38366;53.176;6.540;2022-10-30T06:44:46;24.20;;;10.55;;
52450;SDS011;38366;53.176;6.540;2022-10-30T06:47:13;22.58;;;11.20;;
52450;SDS011;38366;53.176;6.540;2022-10-30T06:49:39;22.88;;;11.15;;
52450;SDS011;38366;53.176;6.540;2022-10-30T06:52:04;23.07;;;11.20;;
52450;SDS011;38366;53.176;6.540;2022-10-30T06:54:30;25.40;;;11.17;;
52450;SDS011;38366;53.176;6.540;2022-10-30T06:56:56;24.63;;;11.15;;
52450;SDS011;38366;53.176;6.540;2022-10-30T06:59:22;19.77;;;10.10;;
52450;SDS011;38366;53.176;6.540;2022-10-30T07:01:47;21.52;;;10.35;;
52450;SDS011;38366;53.176;6.540;2022-10-30T07:04:13;21.93;;;10.97;;
52450;SDS011;38366;53.176;6.540;2022-10-30T07:06:39;22.35;;;10.02;;
52450;SDS011;38366;53.176;6.540;2022-10-30T07:09:05;22.65;;;10.43;;
52450;SDS011;38366;53.176;6.540;2022-10-30T07:11:30;21.60;;;10.63;;
52450;SDS011;38366;53.176;6.540;2022-10-30T07:13:56;22.52;;;10.95;;
52450;SDS011;38366;53.176;6.540;2022-10-30T07:16:22;24.27;;;10.90;;
52450;SDS011;38366;53.176;6.540;2022-10-30T07:18:48;24.63;;;11.13;;
52450;SDS011;38366;53.176;6.540;2022-10-30T07:21:13;19.47;;;10.73;;
52450;SDS011;38366;53.176;6.540;2022-10-30T07:23:39;24.10;;;10.82;;
52450;SDS011;38366;53.176;6.540;2022-10-30T07:26:05;22.17;;;10.13;;
52450;SDS011;38366;53.176;6.540;2022-10-30T07:30:57;18.42;;;9.05;;
52450;SDS011;38366;53.176;6.540;2022-10-30T07:33:23;26.63;;;10.27;;
52450;SDS011;38366;53.176;6.540;2022-10-30T07:35:49;18.30;;;10.10;;
52450;SDS011;38366;53.176;6.540;2022-10-30T07:38:14;17.77;;;8.43;;
52450;SDS011;38366;53.176;6.540;2022-10-30T07:40:41;16.50;;;8.93;;
52450;SDS011;38366;53.176;6.540;2022-10-30T07:43:07;19.65;;;8.80;;
52450;SDS011;38366;53.176;6.540;2022-10-30T07:45:37;15.73;;;8.63;;
52450;SDS011;38366;53.176;6.540;2022-10-30T07:48:03;25.33;;;8.93;;
52450;SDS011;38366;53.176;6.540;2022-10-30T07:52:55;15.27;;;8.32;;
52450;SDS011;38366;53.176;6.540;2022-10-30T07:55:21;17.58;;;8.48;;
52450;SDS011;38366;53.176;6.540;2022-10-30T07:57:47;14.77;;;8.30;;
52450;SDS011;38366;53.176;6.540;2022-10-30T08:00:13;18.25;;;8.77;;
52450;SDS011;38366;53.176;6.540;2022-10-30T08:02:39;18.17;;;8.32;;
52450;SDS011;38366;53.176;6.540;2022-10-30T08:05:05;19.15;;;8.32;;
52450;SDS011;38366;53.176;6.540;2022-10-30T08:09:58;14.88;;;7.93;;
52450;SDS011;38366;53.176;6.540;2022-10-30T08:12:24;18.15;;;8.55;;
52450;SDS011;38366;53.176;6.540;2022-10-30T08:14:51;13.90;;;7.97;;
52450;SDS011;38366;53.176;6.540;2022-10-30T08:17:17;13.32;;;8.10;;
52450;SDS011;38366;53.176;6.540;2022-10-30T08:19:44;16.77;;;8.90;;
52450;SDS011;38366;53.176;6.540;2022-10-30T08:22:09;15.77;;;8.88;;
52450;SDS011;38366;53.176;6.540;2022-10-30T08:24:35;14.90;;;8.60;;
52450;SDS011;38366;53.176;6.540;2022-10-30T08:27:01;18.13;;;9.15;;
52450;SDS011;38366;53.176;6.540;2022-10-30T08:29:27;15.35;;;8.65;;
52450;SDS011;38366;53.176;6.540;2022-10-30T08:31:53;13.95;;;8.35;;
52450;SDS011;38366;53.176;6.540;2022-10-30T08:34:19;13.82;;;8.02;;
52450;SDS011;38366;53.176;6.540;2022-10-30T08:36:46;19.48;;;8.60;;
52450;SDS011;38366;53.176;6.540;2022-10-30T08:39:13;17.15;;;8.02;;
52450;SDS011;38366;53.176;6.540;2022-10-30T08:41:39;14.63;;;8.27;;
52450;SDS011;38366;53.176;6.540;2022-10-30T08:44:05;16.73;;;8.52;;
52450;SDS011;38366;53.176;6.540;2022-10-30T08:46:30;17.23;;;8.73;;
52450;SDS011;38366;53.176;6.540;2022-10-30T08:48:56;13.27;;;7.40;;
52450;SDS011;38366;53.176;6.540;2022-10-30T08:51:22;16.23;;;7.88;;
52450;SDS011;38366;53.176;6.540;2022-10-30T08:53:47;12.55;;;7.35;;
52450;SDS011;38366;53.176;6.540;2022-10-30T08:58:39;11.80;;;7.45;;
52450;SDS011;38366;53.176;6.540;2022-10-30T09:01:05;16.60;;;8.65;;
52450;SDS011;38366;53.176;6.540;2022-10-30T09:03:31;16.63;;;7.97;;
52450;SDS011;38366;53.176;6.540;2022-10-30T09:08:23;17.17;;;8.03;;
52450;SDS011;38366;53.176;6.540;2022-10-30T09:13:33;14.63;;;7.78;;
52450;SDS011;38366;53.176;6.540;2022-10-30T09:18:25;16.13;;;8.33;;
52450;SDS011;38366;53.176;6.540;2022-10-30T09:20:51;13.75;;;8.02;;
52450;SDS011;38366;53.176;6.540;2022-10-30T09:25:43;14.40;;;7.85;;
52450;SDS011;38366;53.176;6.540;2022-10-30T09:30:34;12.63;;;7.00;;
52450;SDS011;38366;53.176;6.540;2022-10-30T09:35:26;11.75;;;7.00;;
52450;SDS011;38366;53.176;6.540;2022-10-30T09:37:52;14.43;;;7.32;;
52450;SDS011;38366;53.176;6.540;2022-10-30T09:40:25;12.63;;;7.10;;
52450;SDS011;38366;53.176;6.540;2022-10-30T09:42:54;13.60;;;7.10;;
52450;SDS011;38366;53.176;6.540;2022-10-30T09:56:23;12.73;;;6.13;;
52450;SDS011;38366;53.176;6.540;2022-10-30T09:59:16;13.23;;;6.47;;
52450;SDS011;38366;53.176;6.540;2022-10-30T10:02:06;12.95;;;6.20;;
52450;SDS011;38366;53.176;6.540;2022-10-30T10:04:48;14.48;;;6.13;;
52450;SDS011;38366;53.176;6.540;2022-10-30T10:07:34;13.93;;;6.95;;
52450;SDS011;38366;53.176;6.540;2022-10-30T10:10:10;15.50;;;7.15;;
52450;SDS011;38366;53.176;6.540;2022-10-30T10:12:45;12.15;;;6.78;;
52450;SDS011;38366;53.176;6.540;2022-10-30T10:18:11;10.30;;;6.15;;
52450;SDS011;38366;53.176;6.540;2022-10-30T10:20:48;9.90;;;6.13;;
52450;SDS011;38366;53.176;6.540;2022-10-30T10:23:27;12.73;;;6.20;;
52450;SDS011;38366;53.176;6.540;2022-10-30T10:26:42;11.70;;;6.47;;
52450;SDS011;38366;53.176;6.540;2022-10-30T10:35:31;11.95;;;5.80;;
52450;SDS011;38366;53.176;6.540;2022-10-30T10:51:43;11.48;;;5.90;;
52450;SDS011;38366;53.176;6.540;2022-10-30T10:54:18;11.63;;;6.00;;
52450;SDS011;38366;53.176;6.540;2022-10-30T10:56:55;12.63;;;5.78;;
52450;SDS011;38366;53.176;6.540;2022-10-30T10:59:43;11.38;;;6.60;;
52450;SDS011;38366;53.176;6.540;2022-10-30T11:05:05;10.93;;;6.20;;
52450;SDS011;38366;53.176;6.540;2022-10-30T11:07:51;13.00;;;5.90;;
52450;SDS011;38366;53.176;6.540;2022-10-30T11:10:18;12.68;;;5.93;;
52450;SDS011;38366;53.176;6.540;2022-10-30T11:12:45;11.32;;;5.85;;
52450;SDS011;38366;53.176;6.540;2022-10-30T11:15:23;11.30;;;5.45;;
52450;SDS011;38366;53.176;6.540;2022-10-30T11:18:06;11.65;;;5.57;;
52450;SDS011;38366;53.176;6.540;2022-10-30T11:20:41;9.93;;;5.00;;
52450;SDS011;38366;53.176;6.540;2022-10-30T11:25:57;14.98;;;5.65;;
52450;SDS011;38366;53.176;6.540;2022-10-30T11:29:10;11.27;;;5.43;;
52450;SDS011;38366;53.176;6.540;2022-10-30T11:31:24;8.50;;;4.90;;
52450;SDS011;38366;53.176;6.540;2022-10-30T11:33:52;9.85;;;5.00;;
52450;SDS011;38366;53.176;6.540;2022-10-30T11:36:22;11.38;;;4.78;;
52450;SDS011;38366;53.176;6.540;2022-10-30T11:38:49;10.85;;;5.10;;
52450;SDS011;38366;53.176;6.540;2022-10-30T11:41:15;11.95;;;4.80;;
52450;SDS011;38366;53.176;6.540;2022-10-30T11:43:42;10.38;;;4.63;;
52450;SDS011;38366;53.176;6.540;2022-10-30T11:46:10;7.32;;;4.07;;
52450;SDS011;38366;53.176;6.540;2022-10-30T11:48:43;10.13;;;3.80;;
52450;SDS011;38366;53.176;6.540;2022-10-30T11:51:10;9.18;;;4.28;;
52450;SDS011;38366;53.176;6.540;2022-10-30T11:53:39;9.38;;;4.53;;
52450;SDS011;38366;53.176;6.540;2022-10-30T11:56:21;11.30;;;4.40;;
52450;SDS011;38366;53.176;6.540;2022-10-30T11:58:55;11.25;;;4.80;;
52450;SDS011;38366;53.176;6.540;2022-10-30T12:01:30;8.33;;;4.17;;
52450;SDS011;38366;53.176;6.540;2022-10-30T12:04:14;11.05;;;4.95;;
52450;SDS011;38366;53.176;6.540;2022-10-30T12:06:52;9.35;;;4.60;;
52450;SDS011;38366;53.176;6.540;2022-10-30T12:09:40;10.02;;;5.05;;
52450;SDS011;38366;53.176;6.540;2022-10-30T12:12:25;15.15;;;5.68;;
52450;SDS011;38366;53.176;6.540;2022-10-30T12:17:39;10.40;;;5.22;;
52450;SDS011;38366;53.176;6.540;2022-10-30T12:20:06;10.52;;;4.80;;
52450;SDS011;38366;53.176;6.540;2022-10-30T12:22:37;10.45;;;5.13;;
52450;SDS011;38366;53.176;6.540;2022-10-30T12:25:05;9.95;;;4.88;;
52450;SDS011;38366;53.176;6.540;2022-10-30T12:27:39;9.68;;;4.57;;
52450;SDS011;38366;53.176;6.540;2022-10-30T12:30:13;12.80;;;4.68;;
52450;SDS011;38366;53.176;6.540;2022-10-30T12:32:52;12.63;;;5.18;;
52450;SDS011;38366;53.176;6.540;2022-10-30T12:35:35;8.27;;;4.10;;
52450;SDS011;38366;53.176;6.540;2022-10-30T12:41:21;10.15;;;4.22;;
52450;SDS011;38366;53.176;6.540;2022-10-30T12:43:58;9.85;;;4.20;;
52450;SDS011;38366;53.176;6.540;2022-10-30T12:46:47;10.93;;;4.40;;
52450;SDS011;38366;53.176;6.540;2022-10-30T12:49:41;11.10;;;4.13;;
52450;SDS011;38366;53.176;6.540;2022-10-30T12:57:35;12.48;;;4.75;;
52450;SDS011;38366;53.176;6.540;2022-10-30T13:00:06;10.18;;;4.38;;
52450;SDS011;38366;53.176;6.540;2022-10-30T13:10:48;11.35;;;4.47;;
52450;SDS011;38366;53.176;6.540;2022-10-30T13:15:50;8.88;;;5.25;;
52450;SDS011;38366;53.176;6.540;2022-10-30T13:18:26;9.20;;;4.68;;
52450;SDS011;38366;53.176;6.540;2022-10-30T13:21:05;12.13;;;4.82;;
52450;SDS011;38366;53.176;6.540;2022-10-30T13:26:26;9.55;;;5.22;;
52450;SDS011;38366;53.176;6.540;2022-10-30T13:34:25;14.23;;;5.30;;
52450;SDS011;38366;53.176;6.540;2022-10-30T13:37:11;10.10;;;4.72;;
52450;SDS011;38366;53.176;6.540;2022-10-30T13:40:00;10.07;;;4.60;;
52450;SDS011;38366;53.176;6.540;2022-10-30T13:53:32;13.27;;;5.67;;
52450;SDS011;38366;53.176;6.540;2022-10-30T13:55:59;11.32;;;4.93;;
52450;SDS011;38366;53.176;6.540;2022-10-30T13:58:33;10.57;;;5.40;;
52450;SDS011;38366;53.176;6.540;2022-10-30T14:01:30;12.40;;;5.40;;
52450;SDS011;38366;53.176;6.540;2022-10-30T14:04:04;10.50;;;5.13;;
52450;SDS011;38366;53.176;6.540;2022-10-30T14:15:24;10.15;;;5.30;;
52450;SDS011;38366;53.176;6.540;2022-10-30T14:20:38;15.50;;;5.15;;
52450;SDS011;38366;53.176;6.540;2022-10-30T14:25:36;13.05;;;5.55;;
52450;SDS011;38366;53.176;6.540;2022-10-30T14:30:28;12.02;;;5.20;;
52450;SDS011;38366;53.176;6.540;2022-10-30T14:35:53;9.63;;;4.80;;
52450;SDS011;38366;53.176;6.540;2022-10-30T14:38:33;11.35;;;5.00;;
52450;SDS011;38366;53.176;6.540;2022-10-30T14:41:16;14.50;;;5.40;;
52450;SDS011;38366;53.176;6.540;2022-10-30T14:46:50;10.15;;;4.85;;
52450;SDS011;38366;53.176;6.540;2022-10-30T14:57:14;10.43;;;4.97;;
52450;SDS011;38366;53.176;6.540;2022-10-30T15:02:51;11.35;;;5.10;;
52450;SDS011;38366;53.176;6.540;2022-10-30T15:05:57;13.43;;;5.20;;
52450;SDS011;38366;53.176;6.540;2022-10-30T15:13:55;13.27;;;5.50;;
52450;SDS011;38366;53.176;6.540;2022-10-30T15:16:25;12.05;;;5.80;;
52450;SDS011;38366;53.176;6.540;2022-10-30T15:18:58;14.57;;;5.68;;
52450;SDS011;38366;53.176;6.540;2022-10-30T15:21:29;14.20;;;5.47;;
52450;SDS011;38366;53.176;6.540;2022-10-30T15:23:59;12.93;;;5.75;;
52450;SDS011;38366;53.176;6.540;2022-10-30T15:26:31;13.15;;;5.70;;
52450;SDS011;38366;53.176;6.540;2022-10-30T15:28:59;12.13;;;5.40;;
52450;SDS011;38366;53.176;6.540;2022-10-30T15:31:26;15.77;;;5.70;;
52450;SDS011;38366;53.176;6.540;2022-10-30T15:33:53;10.95;;;5.40;;
52450;SDS011;38366;53.176;6.540;2022-10-30T15:36:33;14.30;;;5.40;;
52450;SDS011;38366;53.176;6.540;2022-10-30T15:41:39;12.88;;;5.78;;
52450;SDS011;38366;53.176;6.540;2022-10-30T15:44:06;12.20;;;5.28;;
52450;SDS011;38366;53.176;6.540;2022-10-30T15:48:58;13.85;;;6.00;;
52450;SDS011;38366;53.176;6.540;2022-10-30T15:51:24;12.55;;;5.63;;
52450;SDS011;38366;53.176;6.540;2022-10-30T15:53:50;14.10;;;5.80;;
52450;SDS011;38366;53.176;6.540;2022-10-30T15:56:40;13.80;;;5.95;;
52450;SDS011;38366;53.176;6.540;2022-10-30T15:59:14;14.38;;;5.63;;
52450;SDS011;38366;53.176;6.540;2022-10-30T16:01:47;14.30;;;6.20;;
52450;SDS011;38366;53.176;6.540;2022-10-30T16:06:45;11.93;;;6.15;;
52450;SDS011;38366;53.176;6.540;2022-10-30T16:09:16;13.50;;;6.03;;
52450;SDS011;38366;53.176;6.540;2022-10-30T16:11:42;13.55;;;7.13;;
52450;SDS011;38366;53.176;6.540;2022-10-30T16:14:12;13.10;;;7.03;;
52450;SDS011;38366;53.176;6.540;2022-10-30T16:16:40;12.88;;;6.82;;
52450;SDS011;38366;53.176;6.540;2022-10-30T16:19:26;11.77;;;7.10;;
52450;SDS011;38366;53.176;6.540;2022-10-30T16:21:55;12.80;;;6.60;;
52450;SDS011;38366;53.176;6.540;2022-10-30T16:24:24;16.63;;;7.22;;
52450;SDS011;38366;53.176;6.540;2022-10-30T16:27:04;12.05;;;7.07;;
52450;SDS011;38366;53.176;6.540;2022-10-30T16:29:31;12.23;;;6.32;;
52450;SDS011;38366;53.176;6.540;2022-10-30T16:31:58;14.30;;;7.18;;
52450;SDS011;38366;53.176;6.540;2022-10-30T16:34:27;15.13;;;6.45;;
52450;SDS011;38366;53.176;6.540;2022-10-30T16:37:01;14.25;;;6.05;;
52450;SDS011;38366;53.176;6.540;2022-10-30T16:39:29;12.05;;;5.75;;
52450;SDS011;38366;53.176;6.540;2022-10-30T16:41:59;15.10;;;6.20;;
52450;SDS011;38366;53.176;6.540;2022-10-30T16:44:26;13.15;;;6.40;;
52450;SDS011;38366;53.176;6.540;2022-10-30T16:46:54;14.43;;;6.75;;
52450;SDS011;38366;53.176;6.540;2022-10-30T16:49:27;14.35;;;6.72;;
52450;SDS011;38366;53.176;6.540;2022-10-30T16:52:02;13.95;;;6.65;;
52450;SDS011;38366;53.176;6.540;2022-10-30T16:54:40;16.42;;;7.50;;
52450;SDS011;38366;53.176;6.540;2022-10-30T16:57:15;16.90;;;7.25;;
52450;SDS011;38366;53.176;6.540;2022-10-30T17:00:19;10.48;;;6.80;;
52450;SDS011;38366;53.176;6.540;2022-10-30T17:02:46;16.35;;;7.30;;
52450;SDS011;38366;53.176;6.540;2022-10-30T17:05:22;20.35;;;7.75;;
52450;SDS011;38366;53.176;6.540;2022-10-30T17:07:56;17.10;;;8.02;;
52450;SDS011;38366;53.176;6.540;2022-10-30T17:10:29;14.73;;;8.30;;
52450;SDS011;38366;53.176;6.540;2022-10-30T17:16:19;14.10;;;7.03;;
52450;SDS011;38366;53.176;6.540;2022-10-30T17:21:28;14.05;;;7.45;;
52450;SDS011;38366;53.176;6.540;2022-10-30T17:24:02;17.42;;;7.80;;
52450;SDS011;38366;53.176;6.540;2022-10-30T17:26:32;20.08;;;8.10;;
52450;SDS011;38366;53.176;6.540;2022-10-30T17:29:00;16.42;;;7.78;;
52450;SDS011;38366;53.176;6.540;2022-10-30T17:36:38;16.85;;;8.32;;
52450;SDS011;38366;53.176;6.540;2022-10-30T17:39:03;20.50;;;8.27;;
52450;SDS011;38366;53.176;6.540;2022-10-30T17:43:55;15.80;;;8.65;;
52450;SDS011;38366;53.176;6.540;2022-10-30T17:46:21;16.63;;;8.95;;
52450;SDS011;38366;53.176;6.540;2022-10-30T17:48:48;19.63;;;8.60;;
52450;SDS011;38366;53.176;6.540;2022-10-30T17:51:15;15.90;;;8.50;;
52450;SDS011;38366;53.176;6.540;2022-10-30T17:53:41;20.00;;;9.77;;
52450;SDS011;38366;53.176;6.540;2022-10-30T17:58:56;19.45;;;9.15;;
52450;SDS011;38366;53.176;6.540;2022-10-30T18:01:23;18.92;;;9.32;;
52450;SDS011;38366;53.176;6.540;2022-10-30T18:03:51;19.27;;;9.93;;
52450;SDS011;38366;53.176;6.540;2022-10-30T18:06:22;23.00;;;9.77;;
52450;SDS011;38366;53.176;6.540;2022-10-30T18:08:51;19.75;;;10.27;;
52450;SDS011;38366;53.176;6.540;2022-10-30T18:13:45;16.67;;;10.80;;
52450;SDS011;38366;53.176;6.540;2022-10-30T18:16:12;18.25;;;10.32;;
52450;SDS011;38366;53.176;6.540;2022-10-30T18:18:39;22.15;;;12.18;;
52450;SDS011;38366;53.176;6.540;2022-10-30T18:21:09;26.67;;;11.65;;